createdAt,value
2018-07-14T00:01:56.032Z,22.90
2018-07-14T00:04:25.539Z,22.90
2018-07-14T00:06:54.225Z,22.90
2018-07-14T00:09:22.919Z,22.90
2018-07-14T00:11:51.816Z,23.00
2018-07-14T00:14:20.535Z,23.10
2018-07-14T00:16:49.240Z,23.10
2018-07-14T00:19:17.918Z,23.20
2018-07-14T00:21:46.563Z,23.10
2018-07-14T00:24:15.793Z,23.10
2018-07-14T00:26:44.435Z,23.00
2018-07-14T00:29:13.166Z,23.00
2018-07-14T00:31:41.841Z,23.10
2018-07-14T00:34:10.471Z,23.10
2018-07-14T00:36:39.132Z,23.10
2018-07-14T00:39:10.053Z,23.10
2018-07-14T00:41:38.864Z,23.10
2018-07-14T00:44:07.630Z,23.10
2018-07-14T00:46:36.349Z,23.10
2018-07-14T00:49:05.214Z,23.10
2018-07-14T00:51:34.171Z,23.10
2018-07-14T00:54:02.908Z,23.10
2018-07-14T00:56:31.570Z,23.10
2018-07-14T00:59:00.212Z,23.20
2018-07-14T01:01:28.915Z,23.20
2018-07-14T01:03:57.601Z,23.20
2018-07-14T01:06:26.263Z,23.30
2018-07-14T01:08:54.960Z,23.30
2018-07-14T01:11:23.597Z,23.20
2018-07-14T01:13:52.338Z,23.30
2018-07-14T01:16:20.961Z,23.10
2018-07-14T01:18:49.580Z,23.20
2018-07-14T01:21:19.005Z,23.20
2018-07-14T01:23:47.689Z,23.10
2018-07-14T01:26:16.295Z,23.10
2018-07-14T01:28:44.917Z,23.00
2018-07-14T01:31:13.617Z,22.90
2018-07-14T01:33:42.250Z,22.90
2018-07-14T01:36:10.929Z,22.90
2018-07-14T01:38:39.553Z,22.80
2018-07-14T01:41:08.172Z,22.80
2018-07-14T01:43:36.786Z,22.70
2018-07-14T01:46:05.779Z,22.70
2018-07-14T01:48:36.815Z,22.60
2018-07-14T01:51:05.466Z,22.60
2018-07-14T01:53:34.163Z,22.70
2018-07-14T01:56:02.826Z,22.60
2018-07-14T01:58:31.542Z,22.60
2018-07-14T02:01:00.258Z,22.50
2018-07-14T02:03:28.930Z,22.50
2018-07-14T02:05:57.611Z,22.50
2018-07-14T02:08:27.295Z,22.50
2018-07-14T02:10:56.032Z,22.50
2018-07-14T02:13:24.690Z,22.50
2018-07-14T02:15:53.319Z,22.50
2018-07-14T02:18:21.969Z,22.30
2018-07-14T02:20:50.637Z,22.30
2018-07-14T02:23:19.269Z,22.30
2018-07-14T02:25:48.908Z,22.20
2018-07-14T02:30:48.057Z,22.10
2018-07-14T02:33:16.731Z,22.20
2018-07-14T02:35:45.432Z,22.20
2018-07-14T02:38:14.095Z,22.30
2018-07-14T02:40:42.756Z,22.30
2018-07-14T02:43:11.413Z,22.40
2018-07-14T02:45:40.124Z,22.40
2018-07-14T02:48:08.763Z,22.40
2018-07-14T02:50:37.509Z,22.40
2018-07-14T02:53:06.212Z,22.20
2018-07-14T02:55:34.850Z,22.10
2018-07-14T02:58:03.588Z,22.10
2018-07-14T03:00:32.278Z,22.10
2018-07-14T03:03:00.973Z,22.10
2018-07-14T03:05:29.649Z,21.90
2018-07-14T03:07:58.306Z,21.90
2018-07-14T03:10:26.961Z,21.90
2018-07-14T03:12:55.818Z,21.80
2018-07-14T03:15:24.441Z,21.80
2018-07-14T03:17:53.139Z,21.80
2018-07-14T03:22:50.192Z,21.80
2018-07-14T03:25:18.876Z,21.80
2018-07-14T03:27:47.529Z,21.80
2018-07-14T03:30:16.169Z,21.80
2018-07-14T03:32:44.864Z,21.70
2018-07-14T03:35:13.543Z,21.60
2018-07-14T03:37:42.196Z,21.50
2018-07-14T03:40:10.854Z,21.50
2018-07-14T03:42:39.512Z,21.50
2018-07-14T03:45:08.164Z,21.40
2018-07-14T03:47:36.953Z,21.40
2018-07-14T03:50:06.227Z,21.50
2018-07-14T03:52:35.014Z,21.50
2018-07-14T03:55:03.804Z,21.40
2018-07-14T03:57:32.458Z,21.40
2018-07-14T04:00:01.180Z,21.40
2018-07-14T04:02:29.875Z,21.50
2018-07-14T04:04:58.509Z,21.50
2018-07-14T04:07:27.172Z,21.60
2018-07-14T04:09:55.846Z,21.50
2018-07-14T04:14:52.864Z,21.60
2018-07-14T04:17:23.168Z,21.70
2018-07-14T04:19:51.836Z,21.80
2018-07-14T04:22:20.488Z,21.80
2018-07-14T04:24:49.160Z,21.80
2018-07-14T04:27:17.860Z,21.80
2018-07-14T04:29:46.541Z,21.80
2018-07-14T04:32:15.240Z,21.80
2018-07-14T04:34:43.977Z,21.80
2018-07-14T04:37:12.631Z,21.80
2018-07-14T04:39:41.300Z,21.90
2018-07-14T04:42:10.025Z,21.90
2018-07-14T04:44:38.707Z,22.00
2018-07-14T04:47:07.436Z,22.00
2018-07-14T04:49:36.070Z,21.70
2018-07-14T04:52:04.780Z,22.00
2018-07-14T04:54:33.416Z,22.10
2018-07-14T04:59:32.009Z,22.20
2018-07-14T05:02:00.656Z,22.20
2018-07-14T05:06:57.648Z,22.40
2018-07-14T05:09:26.273Z,22.50
2018-07-14T05:11:54.960Z,22.50
2018-07-14T05:14:25.006Z,22.60
2018-07-14T05:19:29.624Z,22.50
2018-07-14T05:21:59.391Z,22.60
2018-07-14T05:24:30.013Z,22.60
2018-07-14T05:27:11.876Z,22.60
2018-07-14T05:29:45.504Z,22.40
2018-07-14T05:32:14.248Z,22.30
2018-07-14T05:34:43.211Z,22.30
2018-07-14T05:37:15.450Z,22.40
2018-07-14T05:39:45.336Z,22.40
2018-07-14T05:42:21.501Z,22.50
2018-07-14T05:44:53.416Z,22.50
2018-07-14T05:47:22.113Z,22.60
2018-07-14T05:49:52.551Z,22.60
2018-07-14T05:52:23.604Z,22.50
2018-07-14T05:54:52.429Z,22.50
2018-07-14T05:57:23.215Z,22.50
2018-07-14T05:59:51.924Z,22.60
2018-07-14T06:02:20.595Z,22.70
2018-07-14T06:04:49.288Z,22.80
2018-07-14T06:07:19.020Z,22.90
2018-07-14T06:09:47.861Z,23.00
2018-07-14T06:12:16.577Z,23.00
2018-07-14T06:14:45.560Z,23.10
2018-07-14T06:17:14.307Z,23.20
2018-07-14T06:19:43.016Z,23.30
2018-07-14T06:22:11.673Z,23.40
2018-07-14T06:24:40.328Z,23.40
2018-07-14T06:27:09.108Z,23.40
2018-07-14T06:29:37.781Z,23.50
2018-07-14T06:32:06.482Z,23.60
2018-07-14T06:34:35.176Z,23.60
2018-07-14T06:37:03.925Z,23.70
2018-07-14T06:39:32.559Z,23.70
2018-07-14T06:42:01.298Z,23.60
2018-07-14T06:44:29.929Z,23.60
2018-07-14T06:46:58.590Z,23.60
2018-07-14T06:49:27.291Z,23.70
2018-07-14T06:51:55.948Z,23.70
2018-07-14T06:54:24.634Z,23.80
2018-07-14T06:56:53.461Z,23.80
2018-07-14T06:59:22.124Z,23.90
2018-07-14T07:01:52.945Z,24.00
2018-07-14T07:04:21.591Z,24.00
2018-07-14T07:06:50.261Z,24.10
2018-07-14T07:09:18.937Z,24.30
2018-07-14T07:11:47.611Z,24.60
2018-07-14T07:14:16.284Z,25.20
2018-07-14T07:16:44.962Z,25.80
2018-07-14T07:19:13.640Z,26.40
2018-07-14T07:21:42.348Z,26.70
2018-07-14T07:24:11.497Z,27.00
2018-07-14T07:26:41.820Z,27.30
2018-07-14T07:29:13.552Z,27.50
2018-07-14T07:31:51.364Z,27.70
2018-07-14T07:34:20.199Z,28.20
2018-07-14T07:36:48.932Z,28.50
2018-07-14T07:39:20.707Z,28.90
2018-07-14T07:44:33.064Z,29.40
2018-07-14T07:47:01.911Z,29.60
2018-07-14T07:49:30.581Z,29.70
2018-07-14T07:51:59.292Z,29.80
2018-07-14T07:54:27.964Z,30.00
2018-07-14T07:56:56.681Z,30.20
2018-07-14T07:59:25.523Z,30.50
2018-07-14T08:01:55.652Z,30.50
2018-07-14T08:04:24.832Z,30.70
2018-07-14T08:06:53.511Z,30.70
2018-07-14T08:09:22.483Z,30.80
2018-07-14T08:11:51.754Z,30.90
2018-07-14T08:16:49.826Z,30.90
2018-07-14T08:19:18.601Z,30.90
2018-07-14T08:21:47.329Z,31.00
2018-07-14T08:24:16.039Z,31.00
2018-07-14T08:26:44.829Z,30.90
2018-07-14T08:29:14.245Z,31.00
2018-07-14T08:31:42.912Z,31.10
2018-07-14T08:34:11.657Z,31.20
2018-07-14T08:36:42.118Z,31.20
2018-07-14T08:39:11.145Z,31.30
2018-07-14T08:41:39.793Z,31.30
2018-07-14T08:44:08.461Z,31.40
2018-07-14T08:46:37.180Z,31.60
2018-07-14T08:49:05.904Z,31.60
2018-07-14T08:51:34.652Z,31.60
2018-07-14T08:54:04.425Z,31.70
2018-07-14T08:56:33.132Z,31.80
2018-07-14T08:59:03.988Z,31.70
2018-07-14T09:01:32.673Z,31.70
2018-07-14T09:04:01.313Z,31.70
2018-07-14T09:06:30.025Z,31.90
2018-07-14T09:08:58.718Z,31.90
2018-07-14T09:11:27.369Z,32.10
2018-07-14T09:13:56.057Z,32.10
2018-07-14T09:16:24.781Z,32.10
2018-07-14T09:18:53.531Z,32.10
2018-07-14T09:21:22.222Z,32.20
2018-07-14T09:23:50.908Z,32.40
2018-07-14T09:26:19.574Z,32.40
2018-07-14T09:28:48.313Z,32.50
2018-07-14T09:31:16.964Z,32.50
2018-07-14T09:33:45.646Z,32.50
2018-07-14T09:36:14.344Z,32.60
2018-07-14T09:38:42.994Z,32.70
2018-07-14T09:41:11.687Z,32.80
2018-07-14T09:43:40.656Z,32.90
2018-07-14T09:46:09.322Z,33.00
2018-07-14T09:48:38.017Z,33.30
2018-07-14T09:51:06.761Z,33.40
2018-07-14T09:53:35.416Z,33.40
2018-07-14T09:56:04.124Z,33.40
2018-07-14T09:58:32.821Z,33.50
2018-07-14T10:01:08.037Z,33.70
2018-07-14T10:03:37.556Z,33.90
2018-07-14T10:06:06.370Z,33.90
2018-07-14T10:08:35.147Z,33.90
2018-07-14T10:11:03.892Z,33.90
2018-07-14T10:13:32.605Z,34.10
2018-07-14T10:16:01.323Z,34.30
2018-07-14T10:18:30.018Z,34.50
2018-07-14T10:20:59.379Z,34.50
2018-07-14T10:23:29.030Z,34.60
2018-07-14T10:25:57.737Z,34.70
2018-07-14T10:28:26.493Z,34.60
2018-07-14T10:30:55.203Z,35.00
2018-07-14T10:33:23.886Z,35.00
2018-07-14T10:35:52.503Z,35.10
2018-07-14T10:38:21.128Z,35.10
2018-07-14T10:40:49.761Z,35.20
2018-07-14T10:43:19.245Z,35.30
2018-07-14T10:45:47.888Z,35.40
2018-07-14T10:48:17.101Z,35.60
2018-07-14T10:50:48.792Z,35.60
2018-07-14T10:53:17.503Z,35.70
2018-07-14T10:55:47.240Z,35.70
2018-07-14T10:58:17.251Z,35.70
2018-07-14T11:00:46.095Z,35.80
2018-07-14T11:03:15.339Z,35.70
2018-07-14T11:08:14.229Z,35.90
2018-07-14T11:10:43.736Z,36.00
2018-07-14T11:13:12.447Z,36.10
2018-07-14T11:15:41.912Z,36.30
2018-07-14T11:18:10.562Z,36.40
2018-07-14T11:20:42.849Z,36.60
2018-07-14T11:23:15.262Z,36.70
2018-07-14T11:28:12.304Z,36.70
2018-07-14T11:30:41.109Z,36.80
2018-07-14T11:33:14.331Z,36.80
2018-07-14T11:35:44.022Z,36.80
2018-07-14T11:38:14.956Z,36.80
2018-07-14T11:43:23.371Z,36.50
2018-07-14T11:45:58.568Z,36.40
2018-07-14T11:48:32.205Z,36.30
2018-07-14T11:51:05.082Z,36.00
2018-07-14T11:53:39.407Z,36.00
2018-07-14T11:56:12.530Z,35.90
2018-07-14T11:58:51.298Z,35.80
2018-07-14T12:01:23.668Z,35.80
2018-07-14T12:03:57.368Z,35.80
2018-07-14T12:06:30.120Z,35.80
2018-07-14T12:09:03.071Z,35.70
2018-07-14T12:11:34.105Z,35.70
2018-07-14T12:14:04.716Z,35.60
2018-07-14T12:16:40.070Z,35.70
2018-07-14T12:19:09.547Z,35.80
2018-07-14T12:21:41.759Z,35.60
2018-07-14T12:24:16.139Z,35.70
2018-07-14T12:26:46.674Z,35.80
2018-07-14T12:29:18.123Z,35.80
2018-07-14T12:31:49.224Z,35.90
2018-07-14T12:36:53.632Z,35.90
2018-07-14T12:39:26.108Z,35.90
2018-07-14T12:41:56.664Z,36.00
2018-07-14T12:44:25.916Z,36.10
2018-07-14T12:47:01.869Z,36.00
2018-07-14T12:49:33.988Z,36.10
2018-07-14T12:52:09.336Z,36.30
2018-07-14T12:54:41.082Z,36.40
2018-07-14T12:57:14.466Z,36.20
2018-07-14T12:59:43.853Z,36.30
2018-07-14T13:02:13.250Z,36.50
2018-07-14T13:04:46.196Z,36.60
2018-07-14T13:07:21.029Z,36.80
2018-07-14T13:09:51.026Z,36.70
2018-07-14T13:12:19.972Z,36.60
2018-07-14T13:14:52.440Z,36.80
2018-07-14T13:17:22.040Z,36.80
2018-07-14T13:21:15.072Z,36.80
2018-07-14T13:23:43.703Z,37.00
2018-07-14T13:26:12.349Z,36.80
2018-07-14T13:28:41.168Z,36.80
2018-07-14T13:31:09.788Z,36.90
2018-07-14T13:36:06.772Z,37.20
2018-07-14T13:38:35.456Z,37.10
2018-07-14T13:41:04.260Z,37.10
2018-07-14T13:43:32.935Z,37.10
2018-07-14T13:46:01.580Z,37.10
2018-07-14T13:48:30.216Z,37.10
2018-07-14T13:50:59.205Z,37.10
2018-07-14T13:53:27.857Z,37.20
2018-07-14T13:55:56.498Z,37.20
2018-07-14T13:58:25.144Z,37.30
2018-07-14T14:00:53.771Z,37.30
2018-07-14T14:03:22.376Z,37.20
2018-07-14T14:05:51.056Z,37.20
2018-07-14T14:08:19.668Z,37.10
2018-07-14T14:10:48.284Z,37.10
2018-07-14T14:13:16.928Z,37.00
2018-07-14T14:15:45.617Z,36.80
2018-07-14T14:18:14.289Z,36.80
2018-07-14T14:20:42.931Z,36.80
2018-07-14T14:23:11.547Z,36.70
2018-07-14T14:25:40.194Z,36.70
2018-07-14T14:28:09.076Z,36.70
2018-07-14T14:30:37.956Z,36.70
2018-07-14T14:33:06.702Z,36.70
2018-07-14T14:35:35.288Z,36.70
2018-07-14T14:38:04.060Z,36.70
2018-07-14T14:40:32.732Z,36.80
2018-07-14T14:43:01.452Z,36.70
2018-07-14T14:45:30.068Z,36.70
2018-07-14T14:47:58.708Z,36.60
2018-07-14T14:50:27.325Z,36.60
2018-07-14T14:52:55.960Z,36.60
2018-07-14T14:55:24.619Z,36.50
2018-07-14T14:57:53.239Z,36.30
2018-07-14T15:00:21.892Z,36.30
2018-07-14T15:02:50.520Z,36.20
2018-07-14T15:05:19.135Z,36.20
2018-07-14T15:07:47.745Z,36.10
2018-07-14T15:10:16.366Z,36.00
2018-07-14T15:12:44.996Z,36.00
2018-07-14T15:15:13.616Z,36.00
2018-07-14T15:17:42.281Z,35.80
2018-07-14T15:20:10.960Z,35.70
2018-07-14T15:22:39.844Z,35.70
2018-07-14T15:25:08.472Z,35.60
2018-07-14T15:27:37.095Z,35.50
2018-07-14T15:30:06.580Z,35.50
2018-07-14T15:32:35.307Z,35.40
2018-07-14T15:35:03.987Z,35.40
2018-07-14T15:37:32.588Z,35.30
2018-07-14T15:40:01.209Z,35.30
2018-07-14T15:42:30.060Z,35.10
2018-07-14T15:44:58.676Z,35.10
2018-07-14T15:47:27.292Z,35.00
2018-07-14T15:49:55.912Z,35.00
2018-07-14T15:52:24.532Z,34.80
2018-07-14T15:54:53.195Z,34.80
2018-07-14T15:57:21.889Z,34.70
2018-07-14T15:59:50.488Z,34.50
2018-07-14T16:02:19.159Z,34.50
2018-07-14T16:04:47.771Z,34.40
2018-07-14T16:07:16.424Z,34.30
2018-07-14T16:09:45.120Z,34.30
2018-07-14T16:12:13.724Z,34.20
2018-07-14T16:14:42.340Z,34.10
2018-07-14T16:17:11.131Z,34.00
2018-07-14T16:19:39.764Z,33.90
2018-07-14T16:22:08.615Z,33.90
2018-07-14T16:24:37.244Z,33.80
2018-07-14T16:27:05.940Z,33.70
2018-07-14T16:29:34.692Z,33.50
2018-07-14T16:32:03.320Z,33.50
2018-07-14T16:34:32.052Z,33.50
2018-07-14T16:37:00.771Z,33.50
2018-07-14T16:39:29.408Z,33.30
2018-07-14T16:41:58.040Z,33.20
2018-07-14T16:44:26.665Z,33.20
2018-07-14T16:46:55.300Z,33.10
2018-07-14T16:49:23.916Z,33.10
2018-07-14T16:51:52.608Z,33.00
2018-07-14T16:54:22.100Z,32.90
2018-07-14T16:56:50.760Z,32.90
2018-07-14T16:59:19.408Z,32.80
2018-07-14T17:01:48.012Z,32.70
2018-07-14T17:04:16.626Z,32.70
2018-07-14T17:06:46.068Z,32.60
2018-07-14T17:09:15.368Z,32.50
2018-07-14T17:11:44.837Z,32.40
2018-07-14T17:14:14.544Z,32.40
2018-07-14T17:16:43.969Z,32.40
2018-07-14T17:19:13.345Z,32.40
2018-07-14T17:21:42.533Z,32.30
2018-07-14T17:24:12.247Z,32.30
2018-07-14T17:26:41.644Z,32.20
2018-07-14T17:29:11.041Z,32.20
2018-07-14T17:31:40.300Z,32.10
2018-07-14T17:34:09.150Z,32.10
2018-07-14T17:36:38.486Z,32.10
2018-07-14T17:39:08.422Z,32.00
2018-07-14T17:41:38.289Z,31.90
2018-07-14T17:44:07.943Z,31.90
2018-07-14T17:46:36.937Z,31.80
2018-07-14T17:49:06.163Z,31.80
2018-07-14T17:51:35.156Z,31.70
2018-07-14T17:54:04.524Z,31.60
2018-07-14T17:56:33.644Z,31.50
2018-07-14T17:59:03.055Z,31.50
2018-07-14T18:01:32.421Z,31.40
2018-07-14T18:04:02.091Z,31.30
2018-07-14T18:06:31.369Z,31.30
2018-07-14T18:11:28.765Z,31.10
2018-07-14T18:13:58.221Z,31.10
2018-07-14T18:16:27.767Z,31.00
2018-07-14T18:18:56.964Z,31.00
2018-07-14T18:23:55.747Z,30.80
2018-07-14T18:26:25.203Z,30.80
2018-07-14T18:28:54.192Z,30.80
2018-07-14T18:31:23.617Z,30.70
2018-07-14T18:33:52.837Z,30.60
2018-07-14T18:36:22.264Z,30.50
2018-07-14T18:38:51.813Z,30.40
2018-07-14T18:41:21.100Z,30.30
2018-07-14T18:43:50.247Z,30.20
2018-07-14T18:46:19.507Z,30.10
2018-07-14T18:48:48.389Z,30.00
2018-07-14T18:51:17.852Z,29.90
2018-07-14T18:53:47.175Z,29.90
2018-07-14T18:56:16.552Z,29.90
2018-07-14T18:58:45.832Z,29.80
2018-07-14T19:01:15.167Z,29.80
2018-07-14T19:03:44.052Z,29.70
2018-07-14T19:06:13.636Z,29.60
2018-07-14T19:09:13.515Z,29.40
2018-07-14T19:11:42.196Z,29.20
2018-07-14T19:14:10.840Z,28.90
2018-07-14T19:16:39.543Z,28.80
2018-07-14T19:19:08.244Z,28.70
2018-07-14T19:21:37.908Z,28.70
2018-07-14T19:24:06.955Z,28.70
2018-07-14T19:26:35.553Z,28.60
2018-07-14T19:29:04.165Z,28.50
2018-07-14T19:31:35.534Z,28.50
2018-07-14T19:34:04.149Z,28.40
2018-07-14T19:36:32.769Z,28.30
2018-07-14T19:39:01.401Z,28.10
2018-07-14T19:41:30.017Z,27.90
2018-07-14T19:43:58.620Z,27.70
2018-07-14T19:46:27.237Z,27.50
2018-07-14T19:48:55.852Z,27.30
2018-07-14T19:51:24.479Z,27.10
2018-07-14T19:53:53.119Z,26.90
2018-07-14T19:58:50.707Z,26.80
2018-07-14T20:01:19.413Z,26.80
2018-07-14T20:03:48.032Z,26.80
2018-07-14T20:06:16.785Z,26.80
2018-07-14T20:08:45.452Z,26.80
2018-07-14T20:11:14.101Z,26.70
2018-07-14T20:13:51.198Z,26.50
2018-07-14T20:16:19.952Z,26.40
2018-07-14T20:18:48.589Z,26.20
2018-07-14T20:21:17.231Z,26.10
2018-07-14T20:23:45.899Z,26.00
2018-07-14T20:26:14.616Z,25.90
2018-07-14T20:28:43.256Z,25.80
2018-07-14T20:31:11.888Z,25.80
2018-07-14T20:33:40.584Z,25.70
2018-07-14T20:36:09.271Z,25.70
2018-07-14T20:38:37.880Z,25.80
2018-07-14T20:41:06.563Z,25.70
2018-07-14T20:43:35.275Z,25.70
2018-07-14T20:46:03.960Z,25.60
2018-07-14T20:48:32.622Z,25.50
2018-07-14T20:51:01.308Z,25.30
2018-07-14T20:53:30.282Z,25.30
2018-07-14T20:55:58.991Z,25.20
2018-07-14T20:58:28.228Z,25.10
2018-07-14T21:00:56.925Z,25.00
2018-07-14T21:03:25.612Z,24.90
2018-07-14T21:05:54.523Z,24.70
2018-07-14T21:08:23.168Z,24.60
2018-07-14T21:10:51.900Z,24.60
2018-07-14T21:15:48.800Z,24.50
2018-07-14T21:18:17.509Z,24.50
2018-07-14T21:20:46.154Z,24.50
2018-07-14T21:23:14.860Z,24.50
2018-07-14T21:25:43.497Z,24.60
2018-07-14T21:28:12.128Z,24.40
2018-07-14T21:30:40.755Z,24.20
2018-07-14T21:33:09.388Z,24.10
2018-07-14T21:35:38.020Z,24.00
2018-07-14T21:38:06.659Z,24.00
2018-07-14T21:40:35.367Z,24.00
2018-07-14T21:43:04.016Z,24.10
2018-07-14T21:45:34.275Z,24.00
2018-07-14T21:50:32.683Z,23.80
2018-07-14T21:53:01.923Z,23.80
2018-07-14T21:55:30.532Z,23.80
2018-07-14T21:57:59.196Z,23.70
2018-07-14T22:00:33.680Z,23.50
2018-07-14T22:03:05.418Z,23.40
2018-07-14T22:05:35.889Z,23.40
2018-07-14T22:08:05.006Z,23.40
2018-07-14T22:10:33.706Z,23.30
2018-07-14T22:13:02.416Z,23.20
2018-07-14T22:15:31.128Z,23.10
2018-07-14T22:17:59.789Z,23.00
2018-07-14T22:20:29.918Z,23.00
2018-07-14T22:22:58.548Z,23.10
2018-07-14T22:25:27.292Z,23.10
2018-07-14T22:27:56.976Z,23.00
2018-07-14T22:30:27.034Z,22.80
2018-07-14T22:35:29.636Z,22.70
2018-07-14T22:37:58.328Z,22.80
2018-07-14T22:40:26.924Z,22.80
2018-07-14T22:42:55.536Z,22.90
2018-07-14T22:45:24.142Z,22.90
2018-07-14T22:47:52.764Z,23.10
2018-07-14T22:55:20.147Z,23.40
2018-07-14T22:57:49.136Z,23.50
2018-07-14T23:00:17.844Z,23.50
2018-07-14T23:02:46.460Z,23.50
2018-07-14T23:05:15.873Z,23.50
2018-07-14T23:07:46.097Z,23.40
2018-07-14T23:10:15.660Z,23.30
2018-07-14T23:12:44.288Z,23.30
2018-07-14T23:15:12.932Z,23.30
2018-07-14T23:17:45.925Z,23.30
2018-07-14T23:20:14.598Z,23.20
2018-07-14T23:22:43.256Z,23.20
2018-07-14T23:25:11.977Z,23.20
2018-07-14T23:27:40.612Z,23.10
2018-07-14T23:30:09.280Z,23.10
2018-07-14T23:32:37.952Z,22.90
2018-07-14T23:35:06.665Z,22.80
2018-07-14T23:37:35.385Z,22.80
2018-07-14T23:42:32.688Z,22.60
2018-07-14T23:45:01.317Z,22.60
2018-07-14T23:47:29.947Z,22.60
2018-07-14T23:49:58.592Z,22.50
2018-07-14T23:52:27.260Z,22.40
2018-07-14T23:54:56.007Z,22.40
2018-07-14T23:57:24.645Z,22.40
2018-07-14T23:59:53.372Z,22.40
